Time;durP1;ratioP1;P1;durP2;ratioP2;P2;SDS_P1;SDS_P2;PMS_P1;PMS_P2;Temp;Humidity;BMP_temperature;BMP_pressure;BME280_temperature;BME280_humidity;BME280_pressure;Samples;Min_cycle;Max_cycle;Signal;HPM_P1;HPM_P2
2022/08/12 00:44:49;;;;;;;6.88;3.97;;;;;;;19.23;55.82;101827.75;5052586;28;20037;-70
2022/08/12 00:47:16;;;;;;;5.65;3.60;;;;;;;19.15;56.06;101834.63;5042662;28;20096;-70
2022/08/12 00:49:42;;;;;;;6.32;3.90;;;;;;;19.11;57.95;101826.00;5043430;28;20035;-70
2022/08/12 00:52:11;;;;;;;8.00;3.80;;;;;;;19.08;57.54;101831.25;5042305;28;20021;-70
2022/08/12 00:54:49;;;;;;;7.72;3.80;;;;;;;18.98;58.15;101831.13;5042642;28;20025;-70
2022/08/12 00:57:28;;;;;;;9.48;4.80;;;;;;;18.86;58.02;101832.16;5042722;28;20067;-69
2022/08/12 01:00:21;;;;;;;6.93;4.03;;;;;;;18.93;57.44;101832.75;5041594;28;20021;-70
2022/08/12 01:02:50;;;;;;;12.98;4.63;;;;;;;18.81;58.96;101828.47;5055872;28;20036;-69
2022/08/12 01:13:35;;;;;;;6.13;4.15;;;;;;;18.48;60.88;101835.84;5043143;28;20553;-70
2022/08/12 01:16:03;;;;;;;8.05;4.60;;;;;;;18.44;61.45;101831.88;5042403;28;20387;-70
2022/08/12 01:18:31;;;;;;;9.57;4.30;;;;;;;18.40;61.04;101833.53;5042702;28;20035;-69
2022/08/12 01:20:59;;;;;;;;;;;;;;;18.59;58.19;101834.00;5042981;28;20025;-69
2022/08/12 01:24:00;;;;;;;7.97;3.97;;;;;;;18.42;60.04;101831.31;5043776;28;19920;-70
2022/08/12 01:26:25;;;;;;;10.20;4.25;;;;;;;18.30;61.36;101827.84;5042472;28;21381;-70
2022/08/12 01:28:56;;;;;;;9.10;4.72;;;;;;;18.23;61.67;101829.94;5042997;28;20098;-70
2022/08/12 01:31:21;;;;;;;9.50;4.70;;;;;;;18.15;62.52;101829.31;5041953;28;20024;-70
2022/08/12 01:34:06;;;;;;;8.90;4.40;;;;;;;18.10;62.54;101828.41;5043726;28;20437;-70
2022/08/12 01:36:45;;;;;;;8.18;4.30;;;;;;;18.11;62.17;101824.53;5041591;28;20388;-69
2022/08/12 01:39:14;;;;;;;8.90;4.72;;;;;;;17.99;63.05;101830.19;5042959;28;20052;-70
2022/08/12 01:41:51;;;;;;;11.40;5.05;;;;;;;17.95;62.82;101839.31;5043190;28;20120;-70
2022/08/12 01:44:17;;;;;;;10.30;5.28;;;;;;;17.91;63.67;101829.81;5042292;28;20048;-69
2022/08/12 01:46:58;;;;;;;9.43;4.72;;;;;;;17.90;63.54;101831.75;5042834;28;20029;-69
2022/08/12 01:49:44;;;;;;;9.60;4.30;;;;;;;17.85;63.60;101826.94;5042864;28;20028;-70
2022/08/12 01:52:26;;;;;;;13.27;5.03;;;;;;;17.87;62.78;101829.47;5042219;28;20448;-70
2022/08/12 01:54:52;;;;;;;7.80;4.50;;;;;;;17.83;63.82;101829.13;5045191;28;20429;-70
2022/08/12 01:57:25;;;;;;;8.85;4.40;;;;;;;17.83;63.93;101820.78;5062650;28;20028;-70
2022/08/12 01:59:58;;;;;;;7.50;4.63;;;;;;;17.85;64.19;101823.31;5046008;28;20431;-69
2022/08/12 02:03:02;;;;;;;9.88;5.18;;;;;;;17.81;64.21;101824.94;5042363;28;20032;-70
2022/08/12 02:12:08;;;;;;;9.85;5.88;;;;;;;17.86;63.43;101811.09;5042673;28;20098;-70
2022/08/12 02:14:55;;;;;;;9.65;5.05;;;;;;;17.83;64.07;101814.38;5040356;28;20056;-70
2022/08/12 02:17:45;;;;;;;7.88;6.03;;;;;;;17.79;63.49;101811.28;5042887;28;20029;-70
2022/08/12 02:20:37;;;;;;;8.90;5.70;;;;;;;17.86;63.86;101819.44;5042032;28;20037;-69
2022/08/12 02:23:05;;;;;;;13.05;5.68;;;;;;;17.79;64.74;101821.53;5041868;28;20123;-70
2022/08/12 02:25:35;;;;;;;8.98;5.40;;;;;;;17.75;64.93;101815.69;5042391;28;20024;-69
2022/08/12 02:28:01;;;;;;;8.70;5.70;;;;;;;17.70;65.26;101811.97;5042291;28;20029;-69
2022/08/12 02:30:30;;;;;;;9.90;5.82;;;;;;;17.68;65.42;101808.56;5040488;28;20055;-69
2022/08/12 02:32:57;;;;;;;11.20;5.72;;;;;;;17.65;65.82;101809.94;5041781;28;20103;-70
2022/08/12 02:35:25;;;;;;;8.40;5.80;;;;;;;17.63;65.60;101810.16;5041787;28;20021;-70
2022/08/12 02:37:53;;;;;;;8.73;5.82;;;;;;;17.57;66.13;101807.56;5042022;28;20025;-70
2022/08/12 02:40:19;;;;;;;;;;;;;;;17.75;62.98;101815.69;5043148;28;20115;-70
2022/08/12 02:43:16;;;;;;;9.63;5.88;;;;;;;17.58;65.02;101810.09;5042688;28;20007;-69
2022/08/12 02:46:02;;;;;;;9.18;6.28;;;;;;;17.48;65.67;101807.16;5041356;28;20064;-69
2022/08/12 02:48:34;;;;;;;9.60;6.05;;;;;;;17.36;66.87;101809.19;5042440;28;20040;-70
2022/08/12 02:51:04;;;;;;;11.35;5.95;;;;;;;17.25;67.37;101810.13;5041567;28;20025;-70
2022/08/12 02:53:31;;;;;;;10.93;6.03;;;;;;;17.21;67.84;101809.78;5041519;28;20025;-70
2022/08/12 02:56:04;;;;;;;9.03;6.13;;;;;;;17.21;68.14;101808.94;5042002;28;20029;-70
2022/08/12 02:58:34;;;;;;;7.95;6.38;;;;;;;17.15;67.95;101809.94;5042115;28;20350;-70
2022/08/12 03:01:03;;;;;;;9.15;6.25;;;;;;;17.15;68.30;101809.94;5040801;28;20032;-70
2022/08/12 03:03:31;;;;;;;12.30;6.78;;;;;;;17.09;68.22;101803.47;5042345;28;20357;-69
2022/08/12 03:06:02;;;;;;;10.00;6.60;;;;;;;17.11;68.40;101802.09;5041044;28;20346;-69
2022/08/12 03:08:31;;;;;;;8.23;6.07;;;;;;;17.05;68.76;101800.34;5042279;28;20391;-69
2022/08/12 03:11:08;;;;;;;10.13;6.43;;;;;;;17.05;68.50;101796.72;5041839;28;20029;-69
2022/08/12 03:13:38;;;;;;;9.25;6.50;;;;;;;17.08;68.73;101796.22;5041548;28;20021;-69
2022/08/12 03:16:04;;;;;;;9.10;5.93;;;;;;;17.09;68.73;101797.91;5043839;28;20408;-69
2022/08/12 03:18:31;;;;;;;10.38;6.25;;;;;;;17.06;69.13;101802.03;5045805;28;20017;-70
2022/08/12 03:20:59;;;;;;;10.15;6.57;;;;;;;17.09;68.63;101795.97;5044371;28;20025;-70
2022/08/12 03:23:26;;;;;;;9.00;6.18;;;;;;;17.10;68.77;101797.66;5053292;28;20012;-70
2022/08/12 03:25:56;;;;;;;9.75;6.63;;;;;;;17.07;68.65;101803.69;5065204;28;20566;-69
2022/08/12 03:31:09;;;;;;;9.50;6.68;;;;;;;17.03;69.49;101801.66;5065274;28;20039;-69
2022/08/12 03:33:39;;;;;;;10.20;6.47;;;;;;;17.03;70.31;101796.13;5064832;28;20023;-70
2022/08/12 03:36:06;;;;;;;9.02;6.45;;;;;;;17.00;69.87;101794.72;5064848;28;20438;-70
2022/08/12 03:38:37;;;;;;;9.33;6.63;;;;;;;17.01;70.43;101790.84;5061672;28;20064;-70
2022/08/12 04:01:04;;;;;;;13.85;6.85;;;;;;;16.79;71.46;101795.44;5043843;28;20060;-69
2022/08/12 04:06:15;;;;;;;10.40;7.07;;;;;;;16.70;71.66;101799.66;5044262;28;20068;-70
2022/08/12 04:08:42;;;;;;;9.65;6.82;;;;;;;16.72;71.61;101797.50;5044685;28;20025;-70
2022/08/12 04:13:51;;;;;;;11.10;6.88;;;;;;;16.73;72.03;101791.72;5044108;28;20154;-71
2022/08/12 04:16:19;;;;;;;10.65;6.95;;;;;;;16.72;71.96;101806.66;5045212;28;20047;-70
2022/08/12 04:18:45;;;;;;;10.40;6.65;;;;;;;16.70;71.93;101800.50;5063500;28;20636;-70
2022/08/12 04:21:10;;;;;;;10.13;6.30;;;;;;;16.70;72.48;101807.97;5063719;28;20103;-70
2022/08/12 04:23:43;;;;;;;11.40;6.60;;;;;;;16.69;72.75;101800.75;5064658;28;20494;-69
2022/08/12 04:26:09;;;;;;;9.85;6.72;;;;;;;16.66;72.61;101806.78;5063286;28;20483;-70
2022/08/12 04:28:34;;;;;;;11.40;6.85;;;;;;;16.61;72.58;101805.59;5061184;28;20108;-70
2022/08/12 04:31:00;;;;;;;11.43;7.13;;;;;;;16.55;73.06;101801.03;5043939;28;20029;-69
2022/08/12 04:33:25;;;;;;;9.90;6.40;;;;;;;16.57;72.92;101798.88;5043879;28;20056;-70
2022/08/12 04:35:51;;;;;;;11.20;7.35;;;;;;;16.56;72.83;101805.50;5052288;28;20436;-70
2022/08/12 04:38:18;;;;;;;11.20;6.75;;;;;;;16.54;73.45;101799.38;5064284;28;20790;-70
2022/08/12 04:40:45;;;;;;;10.55;7.07;;;;;;;16.52;73.49;101798.75;5063740;28;20715;-70
2022/08/12 04:43:10;;;;;;;9.80;6.97;;;;;;;16.62;73.03;101803.66;5064045;28;20673;-70
2022/08/12 04:45:38;;;;;;;10.02;7.32;;;;;;;16.49;73.41;101804.81;5063161;28;20425;-70
2022/08/12 04:48:04;;;;;;;9.13;7.00;;;;;;;16.49;73.74;101812.28;5063692;28;20060;-70
2022/08/12 04:50:30;;;;;;;11.63;6.95;;;;;;;16.44;73.96;101806.66;5062945;28;20043;-69
2022/08/12 04:52:56;;;;;;;8.88;6.88;;;;;;;16.43;74.41;101804.97;5061798;28;20025;-70
2022/08/12 04:55:22;;;;;;;9.32;6.80;;;;;;;16.38;74.45;101805.69;5062841;28;20040;-69
2022/08/12 04:57:48;;;;;;;9.57;7.13;;;;;;;16.39;74.75;101804.59;5063708;28;20016;-70
2022/08/12 05:00:15;;;;;;;10.55;6.43;;;;;;;16.44;74.82;101804.72;5062778;28;20429;-69
2022/08/12 05:02:41;;;;;;;9.10;6.80;;;;;;;16.45;75.17;101802.78;5064028;28;20294;-70
2022/08/12 05:05:09;;;;;;;9.68;7.65;;;;;;;16.45;75.26;101803.63;5062379;28;20024;-68
2022/08/12 05:07:35;;;;;;;10.05;7.07;;;;;;;16.45;74.91;101808.31;5063671;28;20035;-69
2022/08/12 05:10:02;;;;;;;10.40;7.32;;;;;;;16.42;75.51;101815.19;5058284;28;20406;-70
2022/08/12 05:12:32;;;;;;;11.25;7.40;;;;;;;16.43;75.63;101814.13;5042437;28;20033;-70
2022/08/12 05:14:58;;;;;;;10.65;7.30;;;;;;;16.45;75.68;101805.56;5042703;28;20491;-70
2022/08/12 05:17:24;;;;;;;12.02;7.25;;;;;;;16.47;75.59;101808.91;5043238;28;20025;-69
2022/08/12 05:19:50;;;;;;;11.98;8.18;;;;;;;16.50;75.61;101806.50;5043562;28;20033;-69
2022/08/12 05:22:15;;;;;;;11.25;8.52;;;;;;;16.58;75.57;101803.34;5043366;28;20025;-70
2022/08/12 05:24:40;;;;;;;11.02;7.82;;;;;;;16.60;76.04;101803.91;5043060;28;20092;-69
2022/08/12 05:27:06;;;;;;;11.05;8.00;;;;;;;16.61;76.10;101799.22;5042581;28;20092;-70
2022/08/12 05:29:31;;;;;;;11.10;7.97;;;;;;;16.64;75.91;101804.28;5062250;28;20032;-70
2022/08/12 05:31:57;;;;;;;11.23;8.40;;;;;;;16.69;76.09;101807.16;5062684;28;20081;-69
2022/08/12 05:34:22;;;;;;;18.05;9.18;;;;;;;16.72;75.99;101808.59;5062918;28;20669;-69
2022/08/12 05:36:47;;;;;;;14.48;8.98;;;;;;;16.80;75.78;101805.44;5062746;28;20041;-69
2022/08/12 05:39:12;;;;;;;12.60;8.45;;;;;;;16.81;75.50;101812.66;5062628;28;20420;-70
2022/08/12 05:41:38;;;;;;;11.75;8.95;;;;;;;16.91;75.78;101815.63;5062735;28;20028;-70
2022/08/12 05:44:07;;;;;;;13.45;9.35;;;;;;;16.97;75.95;101819.31;5053497;28;20418;-70
2022/08/12 05:46:34;;;;;;;12.50;9.43;;;;;;;17.01;76.28;101813.03;5043102;28;20108;-70
2022/08/12 05:49:00;;;;;;;13.95;9.30;;;;;;;17.11;75.12;101817.94;5042491;28;20365;-72
2022/08/12 05:51:27;;;;;;;13.35;9.68;;;;;;;17.19;75.10;101827.78;5041750;28;20035;-72
2022/08/12 05:53:54;;;;;;;12.07;10.10;;;;;;;17.24;75.96;101825.94;5042594;28;20441;-72
2022/08/12 05:56:28;;;;;;;11.48;9.40;;;;;;;17.32;74.89;101825.50;5043333;28;20090;-70
2022/08/12 05:58:55;;;;;;;14.00;9.85;;;;;;;17.40;74.38;101827.03;5041734;28;20040;-70
2022/08/12 06:01:22;;;;;;;12.48;9.93;;;;;;;17.42;74.90;101824.00;5048046;28;20024;-69
2022/08/12 06:03:48;;;;;;;13.60;9.50;;;;;;;17.53;74.05;101823.06;5063137;28;20054;-70
2022/08/12 06:06:18;;;;;;;13.13;10.10;;;;;;;17.61;74.71;101829.03;5061156;28;20072;-70
2022/08/12 06:08:47;;;;;;;14.55;10.30;;;;;;;17.68;74.70;101834.41;5054917;28;20029;-69
2022/08/12 06:11:16;;;;;;;16.40;10.52;;;;;;;17.78;73.11;101834.59;5042098;28;20032;-70
2022/08/12 06:13:42;;;;;;;17.10;11.02;;;;;;;17.87;73.42;101829.47;5042264;28;20504;-70
2022/08/12 06:16:09;;;;;;;15.38;11.43;;;;;;;18.03;71.62;101838.84;5042306;28;20472;-70
2022/08/12 06:18:38;;;;;;;13.35;10.93;;;;;;;18.09;72.18;101827.53;5024581;28;20017;-69
2022/08/12 06:21:11;;;;;;;15.25;11.55;;;;;;;18.19;72.23;101832.41;5059144;28;20036;-69
2022/08/12 06:23:37;;;;;;;15.32;11.00;;;;;;;18.29;72.13;101832.53;5062236;28;20039;-71
2022/08/12 06:26:04;;;;;;;16.63;11.00;;;;;;;18.38;71.07;101841.28;5061773;28;20029;-70
2022/08/12 06:28:29;;;;;;;17.83;11.23;;;;;;;18.50;70.44;101830.88;5061736;28;20033;-69
2022/08/12 06:30:56;;;;;;;20.13;12.15;;;;;;;18.58;70.32;101835.97;5062189;28;20074;-70
2022/08/12 06:33:21;;;;;;;18.95;12.57;;;;;;;18.72;68.26;101825.31;5061893;28;20035;-70
2022/08/12 06:35:48;;;;;;;15.40;11.30;;;;;;;18.81;69.40;101831.25;5061771;28;20025;-69
2022/08/12 06:38:19;;;;;;;15.57;11.50;;;;;;;18.95;68.47;101829.72;5046795;28;20029;-70
2022/08/12 06:43:32;;;;;;;16.15;11.30;;;;;;;19.23;67.55;101825.81;5042074;28;20095;-70
2022/08/12 06:45:57;;;;;;;17.42;11.60;;;;;;;19.33;67.60;101820.31;5041705;28;20025;-70
2022/08/12 06:48:27;;;;;;;18.27;12.05;;;;;;;19.49;66.05;101826.84;5041727;28;20050;-69
2022/08/12 06:50:53;;;;;;;19.02;11.90;;;;;;;19.66;65.35;101823.94;5044112;28;20055;-70
2022/08/12 06:53:18;;;;;;;15.77;12.85;;;;;;;19.80;64.79;101825.16;5049755;28;20537;-68
2022/08/12 06:55:44;;;;;;;14.68;11.18;;;;;;;19.92;65.27;101816.59;5045500;28;20033;-70
2022/08/12 06:58:10;;;;;;;18.10;11.00;;;;;;;20.07;64.14;101815.84;5045033;28;20314;-69
2022/08/12 07:00:36;;;;;;;15.65;10.60;;;;;;;20.23;63.27;101819.56;5046377;28;20047;-69
2022/08/12 07:03:03;;;;;;;14.73;10.40;;;;;;;20.34;62.44;101819.31;5045446;28;20479;-70
2022/08/12 07:05:29;;;;;;;16.30;11.35;;;;;;;20.47;62.26;101818.00;5045195;28;20057;-70
2022/08/12 07:07:57;;;;;;;13.88;10.77;;;;;;;20.59;61.06;101821.41;5045354;28;20087;-71
2022/08/12 07:10:22;;;;;;;;;;;;;;;20.63;62.76;101816.97;5061439;28;20040;-70
2022/08/12 07:12:53;;;;;;;15.45;10.02;;;;;;;20.71;61.29;101816.41;5066299;28;20033;-70
2022/08/12 07:15:21;;;;;;;15.63;10.35;;;;;;;20.84;61.32;101811.44;5065600;28;20159;-70
2022/08/12 07:17:46;;;;;;;14.93;10.25;;;;;;;20.91;63.52;101803.59;5065521;28;20056;-70
2022/08/12 07:20:11;;;;;;;19.17;10.43;;;;;;;21.00;61.97;101804.75;5064829;28;20526;-70
2022/08/12 07:22:38;;;;;;;15.82;10.80;;;;;;;21.16;60.23;101808.38;5065650;28;20036;-70
2022/08/12 07:27:52;;;;;;;17.70;10.30;;;;;;;21.42;60.95;101814.84;5053292;28;20052;-70
2022/08/12 07:30:18;;;;;;;14.02;10.70;;;;;;;21.54;58.96;101820.97;5044456;28;20120;-70
2022/08/12 07:32:50;;;;;;;14.83;10.43;;;;;;;21.62;59.15;101814.81;5045524;28;20107;-70
2022/08/12 07:35:16;;;;;;;15.40;9.43;;;;;;;21.75;60.13;101825.44;5045502;28;20347;-70
2022/08/12 07:37:43;;;;;;;12.40;9.25;;;;;;;21.91;58.01;101825.41;5045204;28;20029;-69
2022/08/12 07:40:12;;;;;;;13.60;9.48;;;;;;;22.12;56.62;101829.84;5045226;28;20028;-70
2022/08/12 07:42:39;;;;;;;13.25;9.07;;;;;;;22.42;57.43;101836.47;5045072;28;20048;-70
2022/08/12 07:45:06;;;;;;;13.95;9.77;;;;;;;22.54;56.85;101823.78;5044831;28;20033;-69
2022/08/12 07:47:32;;;;;;;12.82;9.75;;;;;;;22.65;55.16;101829.34;5063619;28;20043;-69
2022/08/12 07:49:58;;;;;;;14.00;9.90;;;;;;;22.74;52.68;101827.63;5045072;28;20044;-69
2022/08/12 07:52:24;;;;;;;14.90;9.07;;;;;;;22.86;51.91;101822.53;5044056;28;20032;-70
2022/08/12 07:54:49;;;;;;;13.48;8.60;;;;;;;23.05;50.76;101834.72;5045577;28;20025;-70
2022/08/12 07:57:15;;;;;;;12.55;7.82;;;;;;;23.14;52.84;101829.34;5045116;28;20025;-70
2022/08/12 07:59:40;;;;;;;10.75;8.38;;;;;;;23.25;50.73;101827.31;5044021;28;20037;-70
2022/08/12 08:02:08;;;;;;;11.63;8.15;;;;;;;23.34;51.22;101824.72;5052333;28;20023;-70
2022/08/12 08:07:18;;;;;;;13.48;7.75;;;;;;;23.50;48.86;101827.09;5064310;28;20151;-70
2022/08/12 08:09:43;;;;;;;12.10;7.28;;;;;;;23.56;49.86;101831.50;5064684;28;20128;-70
2022/08/12 08:14:54;;;;;;;9.73;6.30;;;;;;;23.70;50.57;101837.31;5064192;28;20457;-70
2022/08/12 08:17:20;;;;;;;13.85;6.65;;;;;;;23.76;50.73;101833.31;5064909;28;20391;-70
2022/08/12 08:19:51;;;;;;;14.23;7.88;;;;;;;23.78;49.53;101836.69;5060249;28;20043;-70
2022/08/12 08:22:20;;;;;;;13.07;7.03;;;;;;;23.88;49.49;101843.34;5044253;28;20033;-70
2022/08/12 08:24:46;;;;;;;12.98;7.88;;;;;;;23.98;49.00;101849.66;5044676;28;20029;-70
2022/08/12 08:27:11;;;;;;;13.85;8.48;;;;;;;24.03;47.34;101843.16;5043914;28;20024;-70
2022/08/12 08:29:36;;;;;;;14.52;7.63;;;;;;;24.11;48.37;101841.66;5043483;28;20067;-71
2022/08/12 08:32:03;;;;;;;15.37;7.80;;;;;;;24.21;47.96;101841.53;5043775;28;20032;-70
2022/08/12 08:34:30;;;;;;;12.00;7.07;;;;;;;24.36;46.97;101840.56;5044094;28;20271;-70
2022/08/12 08:36:55;;;;;;;13.48;7.65;;;;;;;24.52;47.00;101845.69;5043284;28;20025;-70
2022/08/12 08:39:21;;;;;;;14.95;7.90;;;;;;;24.63;48.36;101842.72;5043952;28;20024;-71
2022/08/12 08:44:30;;;;;;;13.05;6.95;;;;;;;24.89;46.22;101844.06;5043941;28;20059;-70
2022/08/12 08:46:56;;;;;;;13.27;6.50;;;;;;;25.12;46.40;101841.50;5043659;28;20021;-70
2022/08/12 08:49:24;;;;;;;11.98;6.15;;;;;;;25.21;46.05;101840.50;5043510;28;20025;-70
2022/08/12 08:51:49;;;;;;;10.02;5.60;;;;;;;25.38;44.40;101830.69;5043676;28;20036;-70
2022/08/12 08:54:15;;;;;;;10.93;5.78;;;;;;;25.51;45.02;101843.97;5047283;28;20021;-70
2022/08/12 08:56:41;;;;;;;10.88;5.32;;;;;;;25.68;45.38;101847.03;5063149;28;20028;-70
2022/08/12 08:59:07;;;;;;;11.57;5.85;;;;;;;25.76;42.98;101840.72;5062917;28;20044;-70
2022/08/12 09:01:32;;;;;;;9.70;5.50;;;;;;;25.94;43.32;101840.94;5063796;28;20029;-69
2022/08/12 09:03:58;;;;;;;11.18;5.32;;;;;;;26.10;42.24;101842.31;5063019;28;20031;-70
2022/08/12 09:06:23;;;;;;;12.10;5.33;;;;;;;26.37;42.83;101847.16;5062839;28;20749;-70
2022/08/12 09:08:48;;;;;;;10.63;5.13;;;;;;;26.51;42.17;101847.16;5063986;28;20366;-69
2022/08/12 09:13:58;;;;;;;13.95;4.75;;;;;;;26.81;40.25;101834.38;5041326;28;20036;-69
2022/08/12 09:16:24;;;;;;;11.30;5.28;;;;;;;26.89;38.67;101833.63;5043441;28;20024;-70
2022/08/12 09:18:49;;;;;;;11.18;4.90;;;;;;;27.27;39.07;101839.81;5043669;28;20025;-70
2022/08/12 09:21:14;;;;;;;11.23;5.13;;;;;;;27.66;38.30;101835.41;5042477;28;20051;-66
2022/08/12 09:23:40;;;;;;;11.48;5.05;;;;;;;28.41;39.09;101840.16;5043749;28;20326;-69
2022/08/12 09:26:08;;;;;;;10.63;5.78;;;;;;;29.34;34.88;101838.09;5043044;28;20035;-70
2022/08/12 09:28:34;;;;;;;9.65;4.65;;;;;;;31.80;31.07;101828.38;5046928;28;20052;-69
2022/08/12 09:30:59;;;;;;;9.70;5.00;;;;;;;33.92;28.92;101834.63;5062524;28;20038;-68
2022/08/12 09:33:29;;;;;;;9.75;4.43;;;;;;;35.38;25.44;101839.31;5062698;28;20028;-67
2022/08/12 09:35:56;;;;;;;8.98;4.05;;;;;;;36.79;24.29;101825.94;5062428;28;20024;-66
2022/08/12 09:38:22;;;;;;;10.82;4.32;;;;;;;37.68;22.01;101837.72;5062931;28;20020;-66
2022/08/12 09:40:48;;;;;;;8.75;3.75;;;;;;;38.34;21.26;101829.38;5062807;28;20020;-66
2022/08/12 09:46:01;;;;;;;8.18;3.65;;;;;;;39.54;19.49;101822.66;5055491;28;20039;-67
2022/08/12 09:48:27;;;;;;;8.25;3.67;;;;;;;40.10;19.70;101826.06;5042698;28;20052;-66
2022/08/12 09:50:53;;;;;;;8.73;3.47;;;;;;;40.54;18.85;101819.03;5041918;28;20103;-67
2022/08/12 09:53:24;;;;;;;8.77;3.72;;;;;;;41.08;18.66;101816.84;5043338;28;20714;-67
2022/08/12 09:55:53;;;;;;;8.02;3.53;;;;;;;41.48;17.76;101821.19;5043024;28;20108;-67
2022/08/12 09:58:29;;;;;;;9.60;3.63;;;;;;;41.53;17.78;101817.03;5042487;28;20511;-67
2022/08/12 10:01:00;;;;;;;7.35;3.42;;;;;;;40.77;17.88;101807.06;5042050;28;20044;-66
2022/08/12 10:03:27;;;;;;;9.95;3.60;;;;;;;40.81;17.09;101810.72;5041779;28;20620;-66
2022/08/12 10:05:53;;;;;;;8.45;3.50;;;;;;;41.35;17.25;101802.69;5041786;28;20045;-66
2022/08/12 10:08:20;;;;;;;5.40;3.10;;;;;;;41.80;17.34;101802.84;5042812;28;20029;-66
2022/08/12 10:13:42;;;;;;;8.60;3.17;;;;;;;42.12;16.10;101800.50;5041830;28;20234;-66
2022/08/12 10:16:12;;;;;;;7.85;3.17;;;;;;;42.29;15.78;101792.97;5042413;28;20539;-65
2022/08/12 10:18:42;;;;;;;6.68;3.33;;;;;;;42.47;15.82;101793.59;5047444;28;20033;-65
2022/08/12 10:21:11;;;;;;;5.93;3.00;;;;;;;43.28;15.61;101795.13;5041965;28;20108;-66
2022/08/12 10:23:37;;;;;;;4.95;2.92;;;;;;;43.37;15.32;101792.53;5042489;28;20373;-67
2022/08/12 10:31:31;;;;;;;7.55;3.00;;;;;;;42.04;15.53;101781.63;5041989;28;20048;-67
2022/08/12 10:33:56;;;;;;;5.57;3.40;;;;;;;42.11;15.38;101775.78;5041688;28;20464;-67
2022/08/12 10:36:23;;;;;;;6.70;2.90;;;;;;;42.33;13.84;101772.69;5041602;28;20056;-67
2022/08/12 10:38:49;;;;;;;6.07;3.10;;;;;;;41.64;15.66;101763.78;5042902;28;20044;-67
2022/08/12 10:44:01;;;;;;;8.77;3.50;;;;;;;41.40;15.38;101756.97;5041377;28;20072;-68
2022/08/12 10:46:26;;;;;;;6.80;3.60;;;;;;;41.55;15.89;101768.41;5042629;28;20052;-67
2022/08/12 10:48:52;;;;;;;6.47;3.15;;;;;;;42.08;14.73;101755.63;5042694;28;20052;-68
2022/08/12 10:51:18;;;;;;;6.35;2.90;;;;;;;42.33;14.36;101755.38;5041899;28;20125;-68
2022/08/12 10:53:47;;;;;;;5.22;2.88;;;;;;;42.86;14.28;101753.97;5042500;28;20476;-68
2022/08/12 10:56:16;;;;;;;6.45;3.20;;;;;;;42.57;14.72;101745.63;5042752;28;20111;-68
2022/08/12 10:58:43;;;;;;;8.15;3.08;;;;;;;42.31;13.95;101737.66;5023444;28;20029;-68
2022/08/12 11:01:09;;;;;;;5.43;3.10;;;;;;;42.53;14.90;101733.28;5042344;28;20033;-67
2022/08/12 11:03:38;;;;;;;7.28;3.03;;;;;;;42.56;14.98;101740.28;5042697;28;20107;-67
2022/08/12 11:06:09;;;;;;;7.63;3.17;;;;;;;42.76;14.15;101729.72;5041199;28;20051;-68
2022/08/12 11:08:37;;;;;;;7.43;3.10;;;;;;;41.43;15.24;101743.78;5042114;28;20437;-67
2022/08/12 11:11:08;;;;;;;5.53;2.72;;;;;;;40.62;16.37;101735.09;5040553;28;20036;-67
2022/08/12 11:13:35;;;;;;;5.88;3.20;;;;;;;39.55;16.63;101720.78;5038290;28;20082;-67
2022/08/12 11:16:01;;;;;;;7.47;3.20;;;;;;;38.59;17.92;101724.13;5041106;28;20395;-67
2022/08/12 11:18:27;;;;;;;7.47;3.05;;;;;;;37.52;19.11;101713.91;5042149;28;20017;-68
2022/08/12 11:20:53;;;;;;;6.50;3.15;;;;;;;36.76;20.07;101717.09;5040601;28;20029;-68
2022/08/12 11:23:20;;;;;;;5.82;3.10;;;;;;;36.18;20.56;101714.63;5042233;28;20431;-68
2022/08/12 11:25:45;;;;;;;;;;;;;;;36.42;20.26;101708.47;5026492;28;20638;-69
2022/08/12 11:28:12;;;;;;;5.05;3.00;;;;;;;35.57;21.25;101711.56;5040387;28;19964;-68
2022/08/12 11:30:37;;;;;;;7.88;3.40;;;;;;;35.32;20.94;101710.25;5039500;28;20025;-68
2022/08/12 11:33:02;;;;;;;6.20;3.40;;;;;;;35.15;21.47;101707.91;5028351;28;20048;-68
2022/08/12 11:35:28;;;;;;;4.70;2.92;;;;;;;34.95;21.96;101699.38;5041521;28;20021;-68
2022/08/12 11:37:53;;;;;;;8.10;3.03;;;;;;;34.94;21.60;101696.88;5044632;28;20036;-68
2022/08/12 11:40:18;;;;;;;7.53;3.42;;;;;;;34.98;20.78;101704.34;5045590;28;20025;-66
2022/08/12 11:42:44;;;;;;;7.93;3.25;;;;;;;34.53;21.20;101693.56;5044805;28;20025;-67
2022/08/12 11:45:10;;;;;;;7.10;3.40;;;;;;;34.31;22.50;101689.38;5044289;28;20395;-67
2022/08/12 11:47:35;;;;;;;7.55;3.08;;;;;;;34.25;22.41;101693.72;5045725;28;20029;-67
2022/08/12 11:50:01;;;;;;;5.97;3.13;;;;;;;34.23;22.16;101691.25;5044968;28;20056;-67
2022/08/12 11:52:26;;;;;;;8.65;3.53;;;;;;;34.54;22.90;101684.63;5044837;28;20474;-67
2022/08/12 11:54:51;;;;;;;7.50;3.60;;;;;;;34.82;22.73;101684.41;5045256;28;20021;-67
2022/08/12 11:57:17;;;;;;;8.00;3.63;;;;;;;34.94;21.29;101679.72;5044848;28;20029;-67
2022/08/12 11:59:42;;;;;;;9.23;3.72;;;;;;;34.75;21.97;101678.53;5045281;28;20040;-67
2022/08/12 12:02:07;;;;;;;6.65;3.20;;;;;;;34.81;22.56;101676.19;5048983;28;20060;-67
2022/08/12 12:04:32;;;;;;;6.93;3.50;;;;;;;34.76;20.98;101674.47;5045552;28;20083;-67
2022/08/12 12:06:58;;;;;;;5.75;3.72;;;;;;;34.85;22.59;101677.09;5043577;28;20634;-67
2022/08/12 12:09:24;;;;;;;7.72;3.35;;;;;;;34.93;21.81;101666.66;5044656;28;20124;-66
2022/08/12 12:11:49;;;;;;;7.85;3.78;;;;;;;34.97;22.39;101667.56;5045343;28;20424;-67
2022/08/12 12:14:14;;;;;;;9.45;3.60;;;;;;;35.18;21.56;101653.72;5042758;28;20817;-67
2022/08/12 12:16:40;;;;;;;8.35;3.50;;;;;;;35.10;22.28;101658.47;5044460;28;20037;-67
2022/08/12 12:19:05;;;;;;;8.07;3.55;;;;;;;35.10;22.20;101661.31;5044111;28;20017;-67
2022/08/12 12:21:31;;;;;;;7.05;3.35;;;;;;;35.00;20.97;101661.94;5046072;28;20113;-67
2022/08/12 12:23:56;;;;;;;7.40;3.50;;;;;;;34.96;21.44;101663.91;5044588;28;20507;-67
2022/08/12 12:26:21;;;;;;;7.07;3.35;;;;;;;34.87;21.68;101663.28;5044251;28;20032;-67
2022/08/12 12:28:46;;;;;;;6.22;3.08;;;;;;;34.92;21.78;101659.28;5043820;28;20029;-68
2022/08/12 12:31:12;;;;;;;9.23;3.47;;;;;;;34.94;21.34;101652.00;5043618;28;20689;-68
2022/08/12 12:33:39;;;;;;;6.63;3.17;;;;;;;35.07;22.22;101650.66;5044692;28;20025;-67
2022/08/12 12:36:06;;;;;;;6.97;3.15;;;;;;;35.15;20.66;101647.94;5042886;28;20100;-67
2022/08/12 12:38:31;;;;;;;6.63;3.70;;;;;;;35.08;20.82;101646.59;5044256;28;20037;-67
2022/08/12 12:40:56;;;;;;;6.72;3.47;;;;;;;35.00;21.11;101649.69;5043453;28;20063;-67
2022/08/12 12:43:22;;;;;;;5.90;3.47;;;;;;;34.87;21.46;101637.59;5042387;28;20021;-67
2022/08/12 12:45:49;;;;;;;6.45;3.15;;;;;;;35.07;21.00;101641.25;5044565;28;20021;-67
2022/08/12 12:48:18;;;;;;;;;;;;;;;35.36;21.03;101639.75;5044048;28;20021;-67
2022/08/12 12:50:43;;;;;;;7.03;3.30;;;;;;;35.02;20.24;101633.81;5043415;28;19913;-67
2022/08/12 12:53:11;;;;;;;6.97;3.70;;;;;;;34.88;22.11;101639.25;5044148;28;20051;-67
2022/08/12 12:55:36;;;;;;;;;;;;;;;35.27;21.63;101625.72;5052609;28;20028;-67
2022/08/12 12:58:08;;;;;;;9.90;3.30;;;;;;;35.25;21.12;101633.03;5062628;28;19920;-67
2022/08/12 13:00:34;;;;;;;9.73;3.70;;;;;;;35.46;21.16;101629.75;5063885;28;20035;-67
2022/08/12 13:02:59;;;;;;;8.70;3.80;;;;;;;35.49;21.13;101621.25;5064032;28;20610;-67
2022/08/12 13:05:30;;;;;;;9.10;3.53;;;;;;;35.24;20.69;101620.78;5062749;28;20135;-67
2022/08/12 13:08:02;;;;;;;6.53;3.60;;;;;;;35.14;21.55;101623.44;5063871;28;20080;-67
2022/08/12 13:10:29;;;;;;;8.95;3.53;;;;;;;35.34;21.59;101607.91;5063752;28;20394;-67
2022/08/12 13:12:55;;;;;;;11.23;3.70;;;;;;;35.53;20.68;101607.81;5042844;28;20531;-67
2022/08/12 13:15:21;;;;;;;7.28;3.83;;;;;;;35.48;21.43;101610.16;5043943;28;20061;-68
2022/08/12 13:17:54;;;;;;;7.55;3.33;;;;;;;35.61;21.67;101611.63;5044292;28;20159;-67
2022/08/12 13:20:21;;;;;;;6.10;3.17;;;;;;;35.47;20.74;101600.78;5043535;28;20025;-67
2022/08/12 13:22:47;;;;;;;6.95;3.20;;;;;;;35.58;20.40;101604.63;5043945;28;20025;-67